createdAt,value
2023-03-26T00:01:13.984Z,99788.63
2023-03-26T00:03:40.903Z,99785.22
2023-03-26T00:06:17.138Z,99791.31
2023-03-26T00:08:46.934Z,99793.88
2023-03-26T00:11:15.638Z,99797.22
2023-03-26T00:13:43.945Z,99792.13
2023-03-26T00:16:13.715Z,99792.28
2023-03-26T00:18:43.987Z,99801.72
2023-03-26T00:21:16.100Z,99801.72
2023-03-26T00:23:43.297Z,99806.97
2023-03-26T00:26:10.624Z,99805.94
2023-03-26T00:28:40.387Z,99822.47
2023-03-26T00:31:09.275Z,99825.13
2023-03-26T00:33:40.643Z,99830.19
2023-03-26T00:36:16.837Z,99842.97
2023-03-26T00:38:44.610Z,99846.69
2023-03-26T00:41:23.036Z,99841.44
2023-03-26T00:43:57.080Z,99844.97
2023-03-26T00:46:28.646Z,99844.88
2023-03-26T00:48:58.793Z,99840.69
2023-03-26T00:51:26.160Z,99850.94
2023-03-26T00:53:53.017Z,99846.72
2023-03-26T00:56:19.796Z,99849.44
2023-03-26T00:58:47.549Z,99848.69
2023-03-26T01:01:16.801Z,99843.28
2023-03-26T01:03:57.079Z,99856.16
2023-03-26T01:06:36.071Z,99864.78
2023-03-26T01:09:10.750Z,99866.56
2023-03-26T01:11:37.341Z,99865.00
2023-03-26T01:14:10.349Z,99865.00
2023-03-26T01:16:41.605Z,99877.22
2023-03-26T01:19:38.601Z,99873.53
2023-03-26T01:22:13.539Z,99874.97
2023-03-26T01:24:40.914Z,99875.16
2023-03-26T01:27:32.135Z,99879.47
2023-03-26T01:30:07.841Z,99879.66
2023-03-26T01:32:48.898Z,99874.66
2023-03-26T01:35:27.948Z,99881.22
2023-03-26T01:38:23.423Z,99884.91
2023-03-26T01:41:11.675Z,99891.78
2023-03-26T01:43:44.153Z,99885.75
2023-03-26T01:46:11.748Z,99888.44
2023-03-26T01:48:41.288Z,99889.28
2023-03-26T01:51:08.607Z,99890.97
2023-03-26T01:53:38.088Z,99891.00
2023-03-26T01:56:13.745Z,99893.41
2023-03-26T01:58:55.568Z,99894.41
2023-03-26T02:01:30.090Z,99891.47
2023-03-26T02:04:05.593Z,99901.91
2023-03-26T02:06:43.509Z,99909.25
2023-03-26T02:09:14.845Z,99909.63
2023-03-26T02:11:41.496Z,99902.88
2023-03-26T02:14:08.996Z,99906.03
2023-03-26T02:16:35.600Z,99912.31
2023-03-26T02:19:02.281Z,99912.97
2023-03-26T02:21:28.822Z,99905.84
2023-03-26T02:24:03.596Z,99915.47
2023-03-26T02:26:32.421Z,99908.81
2023-03-26T02:28:59.687Z,99915.63
2023-03-26T02:31:26.468Z,99919.09
2023-03-26T02:33:55.621Z,99918.59
2023-03-26T02:36:27.590Z,99917.81
2023-03-26T02:38:58.380Z,99910.25
2023-03-26T02:41:24.890Z,99914.72
2023-03-26T02:43:51.652Z,99916.69
2023-03-26T02:46:18.227Z,99911.75
2023-03-26T02:48:44.709Z,99917.72
2023-03-26T02:51:11.154Z,99909.59
2023-03-26T02:53:39.468Z,99923.06
2023-03-26T02:56:06.641Z,99917.78
2023-03-26T02:58:33.422Z,99932.16
2023-03-26T03:01:03.145Z,99934.78
2023-03-26T03:03:29.998Z,99929.03
2023-03-26T03:05:57.324Z,99927.41
2023-03-26T03:08:26.433Z,99925.47
2023-03-26T03:10:57.988Z,99920.91
2023-03-26T03:13:24.467Z,99922.31
2023-03-26T03:15:51.159Z,99921.94
2023-03-26T03:18:17.617Z,99915.16
2023-03-26T03:20:44.707Z,99921.78
2023-03-26T03:23:11.264Z,99930.25
2023-03-26T03:25:38.372Z,99929.69
2023-03-26T03:28:05.024Z,99932.09
2023-03-26T03:30:31.638Z,99941.09
2023-03-26T03:32:58.501Z,99935.03
2023-03-26T03:35:25.917Z,99931.41
2023-03-26T03:37:52.378Z,99938.69
2023-03-26T03:40:19.720Z,99935.38
2023-03-26T03:42:47.214Z,99941.25
2023-03-26T03:45:14.060Z,99942.13
2023-03-26T03:47:40.876Z,99934.19
2023-03-26T03:50:08.218Z,99932.72
2023-03-26T03:52:34.681Z,99941.25
2023-03-26T03:55:01.154Z,99940.56
2023-03-26T03:57:28.592Z,99946.78
2023-03-26T03:59:58.204Z,99937.53
2023-03-26T04:02:34.637Z,99938.91
2023-03-26T04:05:02.445Z,99947.72
2023-03-26T04:07:33.310Z,99938.25
2023-03-26T04:10:00.425Z,99930.91
2023-03-26T04:12:28.324Z,99942.41
2023-03-26T04:14:55.707Z,99954.22
2023-03-26T04:17:22.764Z,99952.47
2023-03-26T04:19:50.540Z,99952.66
2023-03-26T04:22:18.412Z,99959.00
2023-03-26T04:24:45.545Z,99949.94
2023-03-26T04:27:17.911Z,99955.34
2023-03-26T04:29:49.629Z,99951.63
2023-03-26T04:32:29.900Z,99958.41
2023-03-26T04:35:00.353Z,99955.25
2023-03-26T04:37:40.081Z,99946.28
2023-03-26T04:40:19.516Z,99952.38
2023-03-26T04:42:46.526Z,99948.28
2023-03-26T04:45:14.792Z,99952.81
2023-03-26T04:47:41.671Z,99948.22
2023-03-26T04:50:10.117Z,99955.28
2023-03-26T04:52:37.570Z,99954.38
2023-03-26T04:55:07.551Z,99954.81
2023-03-26T04:57:39.805Z,99956.44
2023-03-26T05:00:15.320Z,99950.28
2023-03-26T05:02:42.892Z,99963.97
2023-03-26T05:05:10.191Z,99962.72
2023-03-26T05:07:36.930Z,99970.22
2023-03-26T05:10:04.560Z,99962.75
2023-03-26T05:12:31.157Z,99967.31
2023-03-26T05:14:57.616Z,99970.63
2023-03-26T05:17:24.782Z,99966.78
2023-03-26T05:19:52.079Z,99968.69
2023-03-26T05:22:19.110Z,99968.19
2023-03-26T05:24:45.566Z,99970.31
2023-03-26T05:27:17.047Z,99971.44
2023-03-26T05:29:43.694Z,99966.63
2023-03-26T05:32:10.967Z,99970.69
2023-03-26T05:34:39.228Z,99972.00
2023-03-26T05:37:06.906Z,99966.25
2023-03-26T05:39:33.649Z,99983.63
2023-03-26T05:42:00.117Z,99968.69
2023-03-26T05:44:26.799Z,99976.25
2023-03-26T05:46:53.263Z,99980.28
2023-03-26T05:49:19.721Z,99990.13
2023-03-26T05:51:46.148Z,99982.84
2023-03-26T05:54:12.606Z,99999.50
2023-03-26T05:56:39.249Z,99991.91
2023-03-26T05:59:06.764Z,99990.22
2023-03-26T06:01:33.263Z,99985.28
2023-03-26T06:03:59.838Z,99981.81
2023-03-26T06:06:26.464Z,99985.28
2023-03-26T06:09:01.813Z,99984.88
2023-03-26T06:11:29.785Z,99992.13
2023-03-26T06:13:56.355Z,99986.88
2023-03-26T06:16:27.242Z,99994.28
2023-03-26T06:18:56.550Z,99993.31
2023-03-26T06:21:27.168Z,99989.91
2023-03-26T06:23:54.059Z,99996.41
2023-03-26T06:26:20.812Z,100001.41
2023-03-26T06:28:47.744Z,99999.06
2023-03-26T06:31:14.266Z,99998.53
2023-03-26T06:33:40.784Z,100000.84
2023-03-26T06:36:07.604Z,100006.25
2023-03-26T06:38:34.226Z,100015.50
2023-03-26T06:41:05.475Z,100014.19
2023-03-26T06:43:33.817Z,100011.75
2023-03-26T06:46:04.351Z,100012.22
2023-03-26T06:48:31.319Z,100010.66
2023-03-26T06:50:58.129Z,100023.13
2023-03-26T06:53:24.649Z,100022.84
2023-03-26T06:55:53.008Z,100021.84
2023-03-26T06:58:19.548Z,100022.47
2023-03-26T07:00:46.795Z,100023.13
2023-03-26T07:03:13.324Z,100020.63
2023-03-26T07:05:42.952Z,100021.28
2023-03-26T07:08:09.396Z,100018.63
2023-03-26T07:10:35.846Z,100022.88
2023-03-26T07:13:02.323Z,100027.75
2023-03-26T07:15:29.072Z,100012.63
2023-03-26T07:17:56.396Z,100027.22
2023-03-26T07:20:23.652Z,100015.50
2023-03-26T07:22:50.600Z,100011.97
2023-03-26T07:25:18.262Z,100017.97
2023-03-26T07:28:24.319Z,100022.25
2023-03-26T07:31:21.495Z,100030.34
2023-03-26T07:34:12.051Z,100022.59
2023-03-26T07:37:05.619Z,100023.34
2023-03-26T07:39:44.221Z,100018.50
2023-03-26T07:42:34.545Z,100024.34
2023-03-26T07:45:24.774Z,100021.19
2023-03-26T07:47:53.551Z,100032.97
2023-03-26T07:50:23.467Z,100029.28
2023-03-26T07:52:50.302Z,100037.22
2023-03-26T07:55:17.342Z,100034.13
2023-03-26T07:57:49.849Z,100031.53
2023-03-26T08:00:22.802Z,100015.97
2023-03-26T08:04:24.029Z,100029.91
2023-03-26T08:07:01.133Z,100021.56
2023-03-26T08:09:55.826Z,100010.88
2023-03-26T08:12:36.588Z,100023.06
2023-03-26T08:15:17.890Z,100026.91
2023-03-26T08:18:00.330Z,100025.09
2023-03-26T08:20:53.930Z,100024.91
2023-03-26T08:23:30.861Z,100030.69
2023-03-26T08:26:02.642Z,100030.13
2023-03-26T08:28:38.550Z,100031.94
2023-03-26T08:31:05.987Z,100031.66
2023-03-26T08:33:36.020Z,100042.53
2023-03-26T08:36:03.914Z,100038.25
2023-03-26T08:38:30.405Z,100029.09
2023-03-26T08:41:12.132Z,100033.72
2023-03-26T08:43:57.521Z,100036.81
2023-03-26T08:46:57.991Z,100031.03
2023-03-26T08:49:30.603Z,100034.00
2023-03-26T08:52:17.274Z,100030.22
2023-03-26T08:54:57.282Z,100040.25
2023-03-26T08:57:57.481Z,100037.66
2023-03-26T09:00:41.907Z,100037.59
2023-03-26T09:03:43.664Z,100030.81
2023-03-26T09:06:42.700Z,100027.13
2023-03-26T09:09:18.621Z,100025.34
2023-03-26T09:12:44.570Z,100027.31
2023-03-26T09:15:36.220Z,100018.28
2023-03-26T09:18:06.155Z,100019.13
2023-03-26T09:21:10.627Z,100028.72
2023-03-26T09:24:14.544Z,100015.28
2023-03-26T09:26:41.015Z,100009.19
2023-03-26T09:29:19.619Z,100012.31
2023-03-26T09:31:58.432Z,100011.91
2023-03-26T09:34:47.421Z,100019.41
2023-03-26T09:37:57.297Z,100015.84
2023-03-26T09:40:53.307Z,100018.34
2023-03-26T09:43:42.374Z,100025.66
2023-03-26T09:46:40.533Z,100024.81
2023-03-26T09:49:13.893Z,100024.03
2023-03-26T09:51:55.547Z,100031.03
2023-03-26T09:54:37.216Z,100037.06
2023-03-26T09:57:09.077Z,100030.78
2023-03-26T09:59:38.525Z,100037.03
2023-03-26T10:02:45.447Z,100022.31
2023-03-26T10:05:20.194Z,100029.31
2023-03-26T10:07:46.608Z,100016.22
2023-03-26T10:10:37.938Z,100024.97
2023-03-26T10:13:30.990Z,100024.09
2023-03-26T10:16:02.678Z,100032.53
2023-03-26T10:18:48.890Z,100032.66
2023-03-26T10:21:37.357Z,100027.56
2023-03-26T10:24:10.187Z,100024.03
2023-03-26T10:27:09.174Z,100017.97
2023-03-26T10:29:43.126Z,100015.19
2023-03-26T10:32:21.979Z,100025.53
2023-03-26T10:35:20.561Z,100025.66
2023-03-26T10:38:14.121Z,100021.22
2023-03-26T10:40:43.762Z,100031.09
2023-03-26T10:43:57.676Z,100025.16
2023-03-26T10:46:50.674Z,100034.22
2023-03-26T10:49:27.221Z,100031.91
2023-03-26T10:51:59.771Z,100032.72
2023-03-26T10:54:44.597Z,100022.31
2023-03-26T10:57:20.906Z,100032.75
2023-03-26T10:59:47.393Z,100034.47
2023-03-26T11:02:30.721Z,100019.56
2023-03-26T11:05:00.665Z,100023.56
2023-03-26T11:07:39.299Z,100033.44
2023-03-26T11:10:26.181Z,100034.25
2023-03-26T11:13:14.652Z,100032.72
2023-03-26T11:15:58.971Z,100026.38
2023-03-26T11:18:36.636Z,100040.59
2023-03-26T11:21:37.889Z,100055.16
2023-03-26T11:24:26.097Z,100053.56
2023-03-26T11:27:26.191Z,100040.44
2023-03-26T11:29:54.085Z,100043.09
2023-03-26T11:32:22.357Z,100057.97
2023-03-26T11:34:55.113Z,100044.06
2023-03-26T11:37:34.147Z,100051.00
2023-03-26T11:40:06.373Z,100057.97
2023-03-26T11:42:32.975Z,100039.72
2023-03-26T11:45:04.312Z,100043.19
2023-03-26T11:47:36.128Z,100055.38
2023-03-26T11:50:03.767Z,100049.03
2023-03-26T11:52:30.506Z,100050.13
2023-03-26T11:54:58.515Z,100039.53
2023-03-26T11:57:33.324Z,100045.69
2023-03-26T12:00:19.451Z,100053.63
2023-03-26T12:02:47.619Z,100044.03
2023-03-26T12:05:19.316Z,100048.28
2023-03-26T12:07:47.480Z,100044.06
2023-03-26T12:10:38.287Z,100044.94
2023-03-26T12:13:35.483Z,100051.00
2023-03-26T12:16:12.901Z,100047.00
2023-03-26T12:18:41.180Z,100058.53
2023-03-26T12:21:12.683Z,100045.38
2023-03-26T12:23:56.151Z,100052.78
2023-03-26T12:26:41.256Z,100064.06
2023-03-26T12:29:13.489Z,100066.59
2023-03-26T12:31:55.464Z,100064.06
2023-03-26T12:34:24.078Z,100061.38
2023-03-26T12:37:00.113Z,100060.59
2023-03-26T12:40:09.177Z,100050.59
2023-03-26T12:44:50.756Z,100039.22
2023-03-26T12:45:15.700Z,100042.06
2023-03-26T12:47:57.244Z,100044.91
2023-03-26T12:50:54.888Z,100030.91
2023-03-26T12:53:45.208Z,100041.44
2023-03-26T12:56:38.583Z,100040.59
2023-03-26T12:59:19.951Z,100048.38
2023-03-26T13:01:46.425Z,100044.06
2023-03-26T13:04:34.177Z,100056.19
2023-03-26T13:07:15.338Z,100051.03
2023-03-26T13:09:44.606Z,100053.56
2023-03-26T13:12:46.317Z,100050.13
2023-03-26T13:15:33.002Z,100057.97
2023-03-26T13:17:59.515Z,100044.06
2023-03-26T13:20:34.227Z,100048.06
2023-03-26T13:23:42.678Z,100044.03
2023-03-26T13:26:30.911Z,100039.38
2023-03-26T13:29:18.580Z,100044.94
2023-03-26T13:31:57.758Z,100039.69
2023-03-26T13:34:42.364Z,100044.94
2023-03-26T13:37:17.037Z,100038.84
2023-03-26T13:40:05.001Z,100035.38
2023-03-26T13:42:44.359Z,100036.22
2023-03-26T13:45:43.185Z,100034.50
2023-03-26T13:48:17.569Z,100038.81
2023-03-26T13:50:52.323Z,100031.00
2023-03-26T13:53:27.290Z,100033.34
2023-03-26T13:55:57.712Z,100040.59
2023-03-26T13:58:43.380Z,100038.88
2023-03-26T14:01:19.410Z,100032.66
2023-03-26T14:03:48.996Z,100037.09
2023-03-26T14:06:42.272Z,100035.34
2023-03-26T14:09:15.779Z,100031.91
2023-03-26T14:11:57.905Z,100028.38
2023-03-26T14:14:47.284Z,100031.91
2023-03-26T14:17:20.750Z,100031.88
2023-03-26T14:20:08.668Z,100038.81
2023-03-26T14:22:57.180Z,100033.56
2023-03-26T14:25:57.704Z,100043.19
2023-03-26T14:29:12.663Z,100035.38
2023-03-26T14:32:01.987Z,100038.75
2023-03-26T14:34:56.657Z,100038.78
2023-03-26T14:37:38.379Z,100044.91
2023-03-26T14:40:16.835Z,100042.34
2023-03-26T14:42:54.455Z,100047.53
2023-03-26T14:45:47.603Z,100045.78
2023-03-26T14:48:38.966Z,100052.66
2023-03-26T14:51:36.826Z,100059.66
2023-03-26T14:54:12.155Z,100058.84
2023-03-26T14:57:03.000Z,100059.69
2023-03-26T14:59:47.626Z,100052.75
2023-03-26T15:02:41.851Z,100057.91
2023-03-26T15:05:39.220Z,100049.25
2023-03-26T15:08:43.092Z,100051.00
2023-03-26T15:11:39.688Z,100051.03
2023-03-26T15:14:28.025Z,100064.06
2023-03-26T15:17:25.988Z,100057.13
2023-03-26T15:20:05.513Z,100060.59
2023-03-26T15:22:51.130Z,100060.56
2023-03-26T15:25:38.856Z,100060.59
2023-03-26T15:28:36.263Z,100062.31
2023-03-26T15:31:10.896Z,100071.03
2023-03-26T15:34:05.043Z,100067.56
2023-03-26T15:40:07.899Z,100069.25
2023-03-26T15:42:37.414Z,100067.53
2023-03-26T15:45:35.502Z,100066.66
2023-03-26T15:48:11.967Z,100071.88
2023-03-26T15:51:01.632Z,100067.53
2023-03-26T15:53:43.384Z,100071.00
2023-03-26T15:56:18.537Z,100082.28
2023-03-26T15:59:13.311Z,100075.34
2023-03-26T16:02:04.506Z,100080.53
2023-03-26T16:05:05.079Z,100080.56
2023-03-26T16:07:47.423Z,100082.28
2023-03-26T16:10:28.930Z,100090.09
2023-03-26T16:13:14.243Z,100092.66
2023-03-26T16:15:41.141Z,100085.78
2023-03-26T16:18:12.019Z,100101.44
2023-03-26T16:20:56.236Z,100104.88
2023-03-26T16:23:55.160Z,100101.34
2023-03-26T16:26:48.257Z,100101.38
2023-03-26T16:29:16.164Z,100104.91
2023-03-26T16:32:07.877Z,100114.44
2023-03-26T16:34:50.702Z,100106.50
2023-03-26T16:37:40.844Z,100111.81
2023-03-26T16:40:16.743Z,100113.56
2023-03-26T16:43:20.967Z,100121.38
2023-03-26T16:46:08.454Z,100127.16
2023-03-26T16:49:03.247Z,100126.66
2023-03-26T16:51:54.376Z,100131.81
2023-03-26T16:54:46.202Z,100144.84
2023-03-26T16:57:27.257Z,100141.41
2023-03-26T17:00:41.392Z,100141.28
2023-03-26T17:03:47.764Z,100157.84
2023-03-26T17:06:25.516Z,100165.75
2023-03-26T17:09:08.807Z,100165.69
2023-03-26T17:11:52.025Z,100169.22
2023-03-26T17:14:18.691Z,100170.09
2023-03-26T17:16:51.378Z,100171.75
2023-03-26T17:19:31.035Z,100169.94
2023-03-26T17:22:24.036Z,100176.19
2023-03-26T17:24:59.451Z,100181.16
2023-03-26T17:27:34.011Z,100189.78
2023-03-26T17:30:11.503Z,100195.97
2023-03-26T17:33:00.022Z,100202.75
2023-03-26T17:35:45.554Z,100201.00
2023-03-26T17:38:18.101Z,100205.94
2023-03-26T17:40:46.508Z,100212.66
2023-03-26T17:43:40.424Z,100221.88
2023-03-26T17:46:21.002Z,100224.69
2023-03-26T17:48:53.044Z,100223.34
2023-03-26T17:51:40.226Z,100226.81
2023-03-26T17:54:28.543Z,100231.88
2023-03-26T17:56:56.472Z,100240.91
2023-03-26T17:59:25.552Z,100243.13
2023-03-26T18:01:56.200Z,100251.81
2023-03-26T18:04:45.153Z,100247.78
2023-03-26T18:07:41.897Z,100251.75
2023-03-26T18:10:32.935Z,100256.59
2023-03-26T18:13:09.682Z,100268.06
2023-03-26T18:15:45.958Z,100257.28
2023-03-26T18:18:36.860Z,100263.78
2023-03-26T18:21:07.141Z,100277.00
2023-03-26T18:23:39.956Z,100278.09
2023-03-26T18:26:19.539Z,100279.03
2023-03-26T18:28:53.099Z,100282.22
2023-03-26T18:31:24.486Z,100284.94
2023-03-26T18:33:55.988Z,100293.38
2023-03-26T18:36:26.295Z,100313.88
2023-03-26T18:38:58.238Z,100301.22
2023-03-26T18:41:31.586Z,100316.41
2023-03-26T18:44:02.624Z,100303.75
2023-03-26T18:46:29.253Z,100319.81
2023-03-26T18:48:56.923Z,100325.09
2023-03-26T18:51:26.000Z,100329.03
2023-03-26T18:53:56.109Z,100337.28
2023-03-26T18:56:36.739Z,100340.69
2023-03-26T18:59:19.264Z,100345.97
2023-03-26T19:01:48.711Z,100350.91
2023-03-26T19:04:15.669Z,100351.50
2023-03-26T19:06:42.889Z,100352.03
2023-03-26T19:09:30.432Z,100356.94
2023-03-26T19:12:08.825Z,100362.34
2023-03-26T19:14:51.592Z,100368.38
2023-03-26T19:17:18.328Z,100360.75
2023-03-26T19:19:45.398Z,100367.63
2023-03-26T19:22:12.158Z,100374.41
2023-03-26T19:24:40.691Z,100380.19
2023-03-26T19:27:07.579Z,100373.63
2023-03-26T19:29:35.670Z,100378.03
2023-03-26T19:32:05.631Z,100370.31
2023-03-26T19:34:35.199Z,100382.41
2023-03-26T19:37:19.882Z,100385.81
2023-03-26T19:39:51.546Z,100385.53
2023-03-26T19:42:43.389Z,100395.41
2023-03-26T19:45:25.922Z,100397.31
2023-03-26T19:48:03.574Z,100406.75
2023-03-26T19:50:42.572Z,100409.34
2023-03-26T19:53:22.564Z,100411.38
2023-03-26T19:55:58.837Z,100410.13
2023-03-26T19:58:28.686Z,100410.03
2023-03-26T20:00:56.371Z,100405.50
2023-03-26T20:03:27.480Z,100409.09
2023-03-26T20:05:54.174Z,100416.25
2023-03-26T20:08:26.996Z,100419.00
2023-03-26T20:10:55.689Z,100421.63
2023-03-26T20:13:22.646Z,100427.69
2023-03-26T20:16:05.586Z,100426.31
2023-03-26T20:18:34.142Z,100435.81
2023-03-26T20:21:00.865Z,100432.34
2023-03-26T20:23:29.104Z,100443.84
2023-03-26T20:25:56.384Z,100443.53
2023-03-26T20:28:24.610Z,100430.31
2023-03-26T20:30:54.591Z,100444.75
2023-03-26T20:33:27.964Z,100447.09
2023-03-26T20:35:55.807Z,100448.41
2023-03-26T20:38:36.691Z,100448.25
2023-03-26T20:41:06.362Z,100457.22
2023-03-26T20:43:33.443Z,100450.22
2023-03-26T20:46:00.777Z,100458.44
2023-03-26T20:48:27.266Z,100465.28
2023-03-26T20:50:54.122Z,100458.91
2023-03-26T20:53:20.751Z,100470.75
2023-03-26T20:55:47.974Z,100468.44
2023-03-26T20:58:17.938Z,100473.13
2023-03-26T21:01:00.703Z,100478.81
2023-03-26T21:03:27.414Z,100483.03
2023-03-26T21:05:53.923Z,100486.44
2023-03-26T21:08:21.931Z,100488.06
2023-03-26T21:10:48.882Z,100479.22
2023-03-26T21:13:39.552Z,100492.88
2023-03-26T21:16:06.575Z,100492.25
2023-03-26T21:18:33.485Z,100499.78
2023-03-26T21:21:21.579Z,100498.03
2023-03-26T21:23:59.233Z,100500.28
2023-03-26T21:26:50.766Z,100500.03
2023-03-26T21:29:17.914Z,100505.44
2023-03-26T21:31:45.138Z,100515.75
2023-03-26T21:34:13.347Z,100510.78
2023-03-26T21:36:40.374Z,100514.78
2023-03-26T21:39:07.345Z,100519.47
2023-03-26T21:42:05.354Z,100525.59
2023-03-26T21:44:33.054Z,100528.84
2023-03-26T21:47:00.119Z,100526.78
2023-03-26T21:49:33.163Z,100528.53
2023-03-26T21:52:00.508Z,100530.03
2023-03-26T21:54:29.383Z,100528.09
2023-03-26T21:57:23.940Z,100535.91
2023-03-26T22:00:15.531Z,100537.06
2023-03-26T22:03:21.623Z,100547.75
2023-03-26T22:05:58.213Z,100559.63
2023-03-26T22:08:31.486Z,100554.97
2023-03-26T22:11:01.698Z,100559.88
2023-03-26T22:13:28.381Z,100558.84
2023-03-26T22:15:54.935Z,100565.50
2023-03-26T22:18:21.751Z,100572.38
2023-03-26T22:20:48.861Z,100574.41
2023-03-26T22:23:16.982Z,100579.06
2023-03-26T22:25:44.616Z,100577.31
2023-03-26T22:28:11.555Z,100574.53
2023-03-26T22:30:38.717Z,100568.72
2023-03-26T22:33:06.432Z,100581.09
2023-03-26T22:35:33.113Z,100581.09
2023-03-26T22:38:00.470Z,100593.56
2023-03-26T22:40:27.747Z,100588.13
2023-03-26T22:42:54.231Z,100590.94
2023-03-26T22:45:20.684Z,100591.66
2023-03-26T22:47:47.254Z,100597.66
2023-03-26T22:50:14.777Z,100599.47
2023-03-26T22:52:41.580Z,100598.69
2023-03-26T22:55:08.541Z,100599.50
2023-03-26T22:57:35.036Z,100601.75
2023-03-26T23:00:14.882Z,100603.88
2023-03-26T23:02:42.279Z,100606.66
2023-03-26T23:05:09.286Z,100616.16
2023-03-26T23:07:35.827Z,100612.38
2023-03-26T23:10:02.285Z,100613.91
2023-03-26T23:12:28.736Z,100621.78
2023-03-26T23:14:55.359Z,100617.56
2023-03-26T23:17:22.369Z,100625.19
2023-03-26T23:19:49.420Z,100614.00
2023-03-26T23:22:16.726Z,100617.75
2023-03-26T23:24:43.196Z,100627.53
2023-03-26T23:27:10.788Z,100629.66
2023-03-26T23:29:37.354Z,100635.72
2023-03-26T23:32:03.989Z,100647.72
2023-03-26T23:34:51.655Z,100650.56
2023-03-26T23:37:23.191Z,100653.66
2023-03-26T23:39:52.876Z,100647.81
2023-03-26T23:42:29.166Z,100654.78
2023-03-26T23:44:57.170Z,100659.75
2023-03-26T23:47:24.160Z,100667.25
2023-03-26T23:49:50.870Z,100665.25
2023-03-26T23:52:17.435Z,100662.69
2023-03-26T23:54:45.593Z,100665.25
2023-03-26T23:57:12.231Z,100675.25
2023-03-26T23:59:41.432Z,100670.78
